createdAt,value
2023-03-04T00:00:03.394Z,0.38
2023-03-04T00:02:30.346Z,0.28
2023-03-04T00:04:57.387Z,0.21
2023-03-04T00:07:24.479Z,0.28
2023-03-04T00:09:51.412Z,0.07
2023-03-04T00:12:18.426Z,0.02
2023-03-04T00:14:45.446Z,-0.05
2023-03-04T00:17:12.464Z,-0.03
2023-03-04T00:19:39.556Z,0.06
2023-03-04T00:22:06.611Z,0.04
2023-03-04T00:24:33.631Z,0.22
2023-03-04T00:27:00.734Z,0.15
2023-03-04T00:29:28.050Z,0.15
2023-03-04T00:31:55.135Z,0.04
2023-03-04T00:34:22.330Z,-0.02
2023-03-04T00:36:49.453Z,-0.02
2023-03-04T00:39:16.765Z,0.02
2023-03-04T00:41:43.820Z,-0.01
2023-03-04T00:44:10.894Z,-0.03
2023-03-04T00:46:38.812Z,-0.01
2023-03-04T00:49:05.819Z,-0.03
2023-03-04T00:51:32.821Z,-0.11
2023-03-04T00:54:00.981Z,-0.07
2023-03-04T00:56:28.390Z,-0.11
2023-03-04T00:58:55.655Z,-0.07
2023-03-04T01:01:22.815Z,-0.09
2023-03-04T01:03:49.810Z,-0.05
2023-03-04T01:06:16.891Z,-0.05
2023-03-04T01:08:44.073Z,-0.05
2023-03-04T01:11:11.437Z,0.01
2023-03-04T01:13:38.879Z,0.02
2023-03-04T01:16:07.225Z,-0.32
2023-03-04T01:18:34.304Z,-0.27
2023-03-04T01:21:01.444Z,-0.27
2023-03-04T01:23:28.473Z,-0.40
2023-03-04T01:25:55.517Z,-0.50
2023-03-04T01:28:22.489Z,-0.40
2023-03-04T01:30:49.532Z,-0.66
2023-03-04T01:33:16.629Z,-0.63
2023-03-04T01:35:43.665Z,-0.67
2023-03-04T01:38:10.747Z,-0.51
2023-03-04T01:40:38.166Z,-0.58
2023-03-04T01:43:05.983Z,-0.82
2023-03-04T01:45:33.872Z,-0.89
2023-03-04T01:48:01.044Z,-0.76
2023-03-04T01:50:34.092Z,-0.85
2023-03-04T01:53:02.937Z,-1.06
2023-03-04T01:55:31.054Z,-0.74
2023-03-04T01:57:58.087Z,-0.68
2023-03-04T02:00:31.945Z,-0.84
2023-03-04T02:03:04.637Z,-0.63
2023-03-04T02:05:31.711Z,-0.76
2023-03-04T02:07:59.946Z,-0.92
2023-03-04T02:10:27.352Z,-0.84
2023-03-04T02:12:54.712Z,-0.69
2023-03-04T02:15:22.288Z,-0.58
2023-03-04T02:17:49.994Z,-0.72
2023-03-04T02:20:31.348Z,-0.94
2023-03-04T02:23:10.156Z,-0.85
2023-03-04T02:26:11.440Z,-1.01
2023-03-04T02:28:38.441Z,-1.04
2023-03-04T02:31:05.882Z,-0.92
2023-03-04T02:33:33.343Z,-1.15
2023-03-04T02:36:00.320Z,-1.07
2023-03-04T02:38:27.275Z,-0.99
2023-03-04T02:40:56.566Z,-1.14
2023-03-04T02:43:23.597Z,-1.18
2023-03-04T02:45:51.729Z,-1.22
2023-03-04T02:48:23.972Z,-1.23
2023-03-04T02:50:53.841Z,-1.36
2023-03-04T02:53:22.129Z,-1.42
2023-03-04T02:55:49.655Z,-1.39
2023-03-04T02:58:16.926Z,-1.38
2023-03-04T03:00:44.039Z,-1.43
2023-03-04T03:03:11.259Z,-1.43
2023-03-04T03:05:39.081Z,-1.48
2023-03-04T03:08:06.674Z,-1.45
2023-03-04T03:10:34.309Z,-1.44
2023-03-04T03:13:01.310Z,-1.26
2023-03-04T03:15:28.279Z,-1.39
2023-03-04T03:17:55.305Z,-1.41
2023-03-04T03:20:22.330Z,-1.35
2023-03-04T03:22:49.361Z,-1.49
2023-03-04T03:25:17.526Z,-1.36
2023-03-04T03:27:44.582Z,-1.28
2023-03-04T03:30:15.083Z,-1.27
2023-03-04T03:32:42.155Z,-1.28
2023-03-04T03:35:09.922Z,-1.05
2023-03-04T03:37:36.935Z,-1.17
2023-03-04T03:40:05.025Z,-1.16
2023-03-04T03:42:32.081Z,-1.23
2023-03-04T03:44:59.070Z,-1.23
2023-03-04T03:47:26.084Z,-1.38
2023-03-04T03:49:53.233Z,-1.21
2023-03-04T03:52:20.261Z,-1.45
2023-03-04T03:54:47.332Z,-1.38
2023-03-04T03:57:14.484Z,-1.36
2023-03-04T03:59:41.936Z,-1.51
2023-03-04T04:02:09.173Z,-1.37
2023-03-04T04:04:36.197Z,-1.31
2023-03-04T04:07:03.297Z,-1.31
2023-03-04T04:09:30.259Z,-1.39
2023-03-04T04:11:57.721Z,-1.39
2023-03-04T04:14:24.756Z,-1.39
2023-03-04T04:16:51.898Z,-1.47
2023-03-04T04:19:20.429Z,-1.60
2023-03-04T04:21:47.871Z,-1.53
2023-03-04T04:24:16.289Z,-1.55
2023-03-04T04:26:43.482Z,-1.61
2023-03-04T04:29:13.548Z,-1.61
2023-03-04T04:31:41.287Z,-1.65
2023-03-04T04:34:08.717Z,-1.74
2023-03-04T04:36:35.830Z,-1.77
2023-03-04T04:39:03.604Z,-1.80
2023-03-04T04:41:37.432Z,-1.72
2023-03-04T04:44:04.752Z,-1.78
2023-03-04T04:46:31.910Z,-1.84
2023-03-04T04:48:58.960Z,-1.83
2023-03-04T04:51:25.977Z,-1.83
2023-03-04T04:53:52.906Z,-1.90
2023-03-04T04:56:26.304Z,-1.88
2023-03-04T04:58:56.763Z,-1.89
2023-03-04T05:01:25.025Z,-2.00
2023-03-04T05:03:53.341Z,-1.99
2023-03-04T05:06:21.705Z,-2.12
2023-03-04T05:08:49.488Z,-2.11
2023-03-04T05:11:17.550Z,-2.09
2023-03-04T05:13:44.537Z,-2.15
2023-03-04T05:16:11.835Z,-2.21
2023-03-04T05:18:38.889Z,-2.11
2023-03-04T05:21:06.697Z,-2.19
2023-03-04T05:23:37.716Z,-2.23
2023-03-04T05:26:06.894Z,-2.25
2023-03-04T05:28:35.397Z,-2.20
2023-03-04T05:31:03.389Z,-2.05
2023-03-04T05:33:30.844Z,-2.10
2023-03-04T05:35:58.374Z,-2.08
2023-03-04T05:38:25.837Z,-1.94
2023-03-04T05:40:59.368Z,-2.05
2023-03-04T05:43:28.005Z,-2.02
2023-03-04T05:45:55.792Z,-1.87
2023-03-04T05:48:23.917Z,-1.94
2023-03-04T05:50:56.572Z,-2.04
2023-03-04T05:53:24.242Z,-2.14
2023-03-04T05:55:52.336Z,-2.01
2023-03-04T05:58:20.338Z,-2.12
2023-03-04T06:00:47.803Z,-2.07
2023-03-04T06:03:21.457Z,-1.98
2023-03-04T06:05:48.793Z,-1.96
2023-03-04T06:08:15.843Z,-1.91
2023-03-04T06:10:43.160Z,-1.94
2023-03-04T06:13:10.491Z,-1.83
2023-03-04T06:15:39.772Z,-1.83
2023-03-04T06:18:07.942Z,-1.83
2023-03-04T06:20:35.253Z,-1.79
2023-03-04T06:23:02.350Z,-1.80
2023-03-04T06:25:29.971Z,-1.81
2023-03-04T06:27:56.977Z,-1.69
2023-03-04T06:30:24.487Z,-1.65
2023-03-04T06:32:51.513Z,-1.47
2023-03-04T06:35:18.627Z,-1.37
2023-03-04T06:37:45.788Z,-1.26
2023-03-04T06:40:14.116Z,-0.85
2023-03-04T06:42:42.222Z,-0.85
2023-03-04T06:45:10.688Z,-0.82
2023-03-04T06:47:38.025Z,-0.62
2023-03-04T06:50:05.820Z,-0.43
2023-03-04T06:52:33.057Z,-0.13
2023-03-04T06:55:00.181Z,0.07
2023-03-04T06:57:27.279Z,0.01
2023-03-04T06:59:54.453Z,0.01
2023-03-04T07:02:21.642Z,0.09
2023-03-04T07:04:48.972Z,0.13
2023-03-04T07:07:16.100Z,0.28
2023-03-04T07:09:43.161Z,0.24
2023-03-04T07:12:10.343Z,0.41
2023-03-04T07:14:37.446Z,0.50
2023-03-04T07:17:04.529Z,0.62
2023-03-04T07:19:31.567Z,0.72
2023-03-04T07:21:58.599Z,0.83
2023-03-04T07:24:25.624Z,0.95
2023-03-04T07:26:52.656Z,1.01
2023-03-04T07:29:19.720Z,1.03
2023-03-04T07:31:46.979Z,1.13
2023-03-04T07:34:15.105Z,1.16
2023-03-04T07:36:42.787Z,1.18
2023-03-04T07:39:11.705Z,1.13
2023-03-04T07:41:39.024Z,1.19
2023-03-04T07:44:08.093Z,1.31
2023-03-04T07:46:35.791Z,1.29
2023-03-04T07:49:03.236Z,1.34
2023-03-04T07:51:30.617Z,1.39
2023-03-04T07:54:00.615Z,1.48
2023-03-04T07:56:31.677Z,1.53
2023-03-04T07:59:00.354Z,1.60
2023-03-04T08:01:35.282Z,1.66
2023-03-04T08:04:04.507Z,1.74
2023-03-04T08:06:32.155Z,1.76
2023-03-04T08:09:08.163Z,1.85
2023-03-04T08:11:38.025Z,1.95
2023-03-04T08:14:06.306Z,1.99
2023-03-04T08:16:33.693Z,1.96
2023-03-04T08:19:03.176Z,2.01
2023-03-04T08:21:30.752Z,2.05
2023-03-04T08:24:02.625Z,2.10
2023-03-04T08:26:35.372Z,2.13
2023-03-04T08:29:05.406Z,2.23
2023-03-04T08:31:33.177Z,2.29
2023-03-04T08:34:02.172Z,2.33
2023-03-04T08:36:29.367Z,2.37
2023-03-04T08:41:34.580Z,2.45
2023-03-04T08:44:02.370Z,2.41
2023-03-04T08:46:29.874Z,2.49
2023-03-04T08:48:57.160Z,2.51
2023-03-04T08:51:27.015Z,2.64
2023-03-04T08:53:54.239Z,2.69
2023-03-04T08:56:21.249Z,2.76
2023-03-04T08:58:48.346Z,2.81
2023-03-04T09:01:17.156Z,2.86
2023-03-04T09:03:44.686Z,2.91
2023-03-04T09:06:16.098Z,2.92
2023-03-04T09:08:44.776Z,2.99
2023-03-04T09:11:13.620Z,3.05
2023-03-04T09:13:40.908Z,3.14
2023-03-04T09:16:13.467Z,3.16
2023-03-04T09:18:42.074Z,3.21
2023-03-04T09:21:13.732Z,3.35
2023-03-04T09:23:41.428Z,3.28
2023-03-04T09:26:23.565Z,3.29
2023-03-04T09:28:57.968Z,3.35
2023-03-04T09:31:29.706Z,3.44
2023-03-04T09:33:58.747Z,3.45
2023-03-04T09:36:27.180Z,3.48
2023-03-04T09:38:54.511Z,3.52
2023-03-04T09:41:47.352Z,3.61
2023-03-04T09:44:26.684Z,3.55
2023-03-04T09:46:59.421Z,3.54
2023-03-04T09:49:27.681Z,3.49
2023-03-04T09:52:51.060Z,3.61
2023-03-04T09:55:31.923Z,3.66
2023-03-04T09:58:31.314Z,3.65
2023-03-04T10:01:11.081Z,3.69
2023-03-04T10:03:48.998Z,3.62
2023-03-04T10:06:23.847Z,3.72
2023-03-04T10:09:07.143Z,3.70
2023-03-04T10:12:03.318Z,3.70
2023-03-04T10:14:38.002Z,3.69
2023-03-04T10:17:45.661Z,3.67
2023-03-04T10:20:26.969Z,3.67
2023-03-04T10:23:00.619Z,3.70
2023-03-04T10:25:33.349Z,3.79
2023-03-04T10:28:05.363Z,3.85
2023-03-04T10:30:58.807Z,3.75
2023-03-04T10:33:30.873Z,3.81
2023-03-04T10:36:04.672Z,3.93
2023-03-04T10:38:36.370Z,3.86
2023-03-04T10:41:24.770Z,4.06
2023-03-04T10:44:04.527Z,3.99
2023-03-04T10:46:32.865Z,3.93
2023-03-04T10:49:00.093Z,4.06
2023-03-04T10:51:30.110Z,4.05
2023-03-04T10:54:25.387Z,4.01
2023-03-04T10:57:05.357Z,4.09
2023-03-04T10:59:41.942Z,4.25
2023-03-04T11:02:38.948Z,4.38
2023-03-04T11:05:14.805Z,4.27
2023-03-04T11:07:56.240Z,4.21
2023-03-04T11:10:36.171Z,4.31
2023-03-04T11:13:18.729Z,4.33
2023-03-04T11:16:24.193Z,4.29
2023-03-04T11:19:09.671Z,4.26
2023-03-04T11:21:41.062Z,4.31
2023-03-04T11:24:30.998Z,4.24
2023-03-04T11:27:42.904Z,4.27
2023-03-04T11:30:21.916Z,4.30
2023-03-04T11:32:53.250Z,4.49
2023-03-04T11:35:35.466Z,4.41
2023-03-04T11:38:29.762Z,4.30
2023-03-04T11:41:05.192Z,4.44
2023-03-04T11:43:41.347Z,4.52
2023-03-04T11:46:36.841Z,4.58
2023-03-04T11:49:15.876Z,4.61
2023-03-04T11:52:16.760Z,4.79
2023-03-04T11:55:08.013Z,4.72
2023-03-04T11:57:49.241Z,4.69
2023-03-04T12:00:32.306Z,4.70
2023-03-04T12:03:24.818Z,4.75
2023-03-04T12:06:18.465Z,4.68
2023-03-04T12:09:03.699Z,4.77
2023-03-04T12:11:40.816Z,4.96
2023-03-04T12:14:35.306Z,4.97
2023-03-04T12:17:45.911Z,4.81
2023-03-04T12:20:56.140Z,4.88
2023-03-04T12:24:19.065Z,4.99
2023-03-04T12:27:47.275Z,4.95
2023-03-04T12:31:03.940Z,5.08
2023-03-04T12:33:55.657Z,5.09
2023-03-04T12:36:43.347Z,5.03
2023-03-04T12:39:42.817Z,4.99
2023-03-04T12:42:40.726Z,4.98
2023-03-04T12:45:41.783Z,5.03
2023-03-04T12:48:33.979Z,5.06
2023-03-04T12:51:16.614Z,5.05
2023-03-04T12:54:20.454Z,4.98
2023-03-04T12:57:12.770Z,4.90
2023-03-04T13:00:21.323Z,4.92
2023-03-04T13:03:13.994Z,4.96
2023-03-04T13:06:11.683Z,4.96
2023-03-04T13:08:51.205Z,4.93
2023-03-04T13:11:27.563Z,4.98
2023-03-04T13:14:17.484Z,4.97
2023-03-04T13:16:46.841Z,4.96
2023-03-04T13:19:57.075Z,4.96
2023-03-04T13:22:39.544Z,5.03
2023-03-04T13:25:31.834Z,5.00
2023-03-04T13:28:10.488Z,4.99
2023-03-04T13:30:38.360Z,4.81
2023-03-04T13:33:12.777Z,4.92
2023-03-04T13:36:01.055Z,4.95
2023-03-04T13:38:31.221Z,5.01
2023-03-04T13:41:27.798Z,4.96
2023-03-04T13:44:03.509Z,5.00
2023-03-04T13:46:50.785Z,4.97
2023-03-04T13:49:27.411Z,5.03
2023-03-04T13:52:01.823Z,4.96
2023-03-04T13:54:33.093Z,4.99
2023-03-04T13:57:20.578Z,5.00
2023-03-04T13:59:58.663Z,5.08
2023-03-04T14:02:27.446Z,5.00
2023-03-04T14:04:54.523Z,5.00
2023-03-04T14:07:29.848Z,4.96
2023-03-04T14:10:15.091Z,4.97
2023-03-04T14:12:55.066Z,4.97
2023-03-04T14:15:30.874Z,5.04
2023-03-04T14:18:04.414Z,4.95
2023-03-04T14:20:59.304Z,5.03
2023-03-04T14:23:36.166Z,5.01
2023-03-04T14:26:15.916Z,5.00
2023-03-04T14:28:49.884Z,5.01
2023-03-04T14:31:22.791Z,5.07
2023-03-04T14:34:13.650Z,5.10
2023-03-04T14:36:44.444Z,5.07
2023-03-04T14:39:18.464Z,5.05
2023-03-04T14:41:48.059Z,5.15
2023-03-04T14:44:24.933Z,5.22
2023-03-04T14:47:07.488Z,5.23
2023-03-04T14:49:37.306Z,5.27
2023-03-04T14:52:04.839Z,5.28
2023-03-04T14:54:38.637Z,5.21
2023-03-04T14:57:27.444Z,5.26
2023-03-04T14:59:54.869Z,5.31
2023-03-04T15:02:33.289Z,5.23
2023-03-04T15:05:25.971Z,5.28
2023-03-04T15:08:25.225Z,5.32
2023-03-04T15:11:01.922Z,5.27
2023-03-04T15:13:49.919Z,5.33
2023-03-04T15:16:23.534Z,5.39
2023-03-04T15:19:06.118Z,5.39
2023-03-04T15:21:34.779Z,5.43
2023-03-04T15:24:03.856Z,5.44
2023-03-04T15:26:38.686Z,5.41
2023-03-04T15:29:19.218Z,5.40
2023-03-04T15:31:50.009Z,5.44
2023-03-04T15:34:19.631Z,5.40
2023-03-04T15:36:53.094Z,5.40
2023-03-04T15:39:21.925Z,5.45
2023-03-04T15:41:50.708Z,5.43
2023-03-04T15:44:18.102Z,5.41
2023-03-04T15:46:45.283Z,5.43
2023-03-04T15:49:12.495Z,5.39
2023-03-04T15:51:40.150Z,5.39
2023-03-04T15:54:17.186Z,5.40
2023-03-04T15:56:44.315Z,5.40
2023-03-04T15:59:14.334Z,5.45
2023-03-04T16:01:41.585Z,5.39
2023-03-04T16:04:18.836Z,5.41
2023-03-04T16:06:47.879Z,5.49
2023-03-04T16:09:18.804Z,5.59
2023-03-04T16:11:47.882Z,5.67
2023-03-04T16:14:16.341Z,5.53
2023-03-04T16:16:44.478Z,5.40
2023-03-04T16:19:11.938Z,5.39
2023-03-04T16:21:39.251Z,5.32
2023-03-04T16:24:07.034Z,5.33
2023-03-04T16:26:36.315Z,5.32
2023-03-04T16:29:03.530Z,5.24
2023-03-04T16:31:30.755Z,5.27
2023-03-04T16:33:58.093Z,5.21
2023-03-04T16:36:27.886Z,5.19
2023-03-04T16:39:02.809Z,5.21
2023-03-04T16:41:30.783Z,5.18
2023-03-04T16:44:01.690Z,5.09
2023-03-04T16:46:30.342Z,4.97
2023-03-04T16:48:57.491Z,4.98
2023-03-04T16:51:24.596Z,4.98
2023-03-04T16:54:02.126Z,4.96
2023-03-04T16:56:29.766Z,4.93
2023-03-04T16:58:57.209Z,4.93
2023-03-04T17:01:28.931Z,4.95
2023-03-04T17:03:56.804Z,4.93
2023-03-04T17:06:25.278Z,4.96
2023-03-04T17:08:52.430Z,4.85
2023-03-04T17:11:23.505Z,4.87
2023-03-04T17:13:51.735Z,4.90
2023-03-04T17:16:19.913Z,4.77
2023-03-04T17:18:51.595Z,4.82
2023-03-04T17:21:23.288Z,4.87
2023-03-04T17:23:51.094Z,4.94
2023-03-04T17:26:21.193Z,4.91
2023-03-04T17:28:51.999Z,4.91
2023-03-04T17:31:20.741Z,4.88
2023-03-04T17:33:49.525Z,4.93
2023-03-04T17:36:18.309Z,5.00
2023-03-04T17:38:46.536Z,5.01
2023-03-04T17:41:17.690Z,4.97
2023-03-04T17:43:51.361Z,4.97
2023-03-04T17:46:23.677Z,4.99
2023-03-04T17:48:56.487Z,4.97
2023-03-04T17:51:36.623Z,4.99
2023-03-04T17:54:05.870Z,4.97
2023-03-04T17:56:34.134Z,5.00
2023-03-04T17:59:05.681Z,5.11
2023-03-04T18:01:32.762Z,5.11
2023-03-04T18:04:05.624Z,5.16
2023-03-04T18:06:33.012Z,5.18
2023-03-04T18:09:00.141Z,5.14
2023-03-04T18:11:28.218Z,5.17
2023-03-04T18:13:56.726Z,5.13
2023-03-04T18:16:27.284Z,5.22
2023-03-04T18:19:00.117Z,5.25
2023-03-04T18:21:29.680Z,5.20
2023-03-04T18:23:57.678Z,5.21
2023-03-04T18:29:08.053Z,5.15
2023-03-04T18:31:37.142Z,5.12
2023-03-04T18:34:05.199Z,5.12
2023-03-04T18:36:33.084Z,5.08
2023-03-04T18:39:00.456Z,5.05
2023-03-04T18:41:28.352Z,5.06
2023-03-04T18:43:55.575Z,4.99
2023-03-04T18:46:44.499Z,5.00
2023-03-04T18:49:12.902Z,4.98
2023-03-04T18:51:40.161Z,4.98
2023-03-04T18:54:07.640Z,4.94
2023-03-04T18:56:47.095Z,4.86
2023-03-04T18:59:31.307Z,4.94
2023-03-04T19:01:59.478Z,4.91
2023-03-04T19:04:28.476Z,4.79
2023-03-04T19:06:55.867Z,4.82
2023-03-04T19:09:22.866Z,4.77
2023-03-04T19:11:49.988Z,4.74
2023-03-04T19:14:17.110Z,4.58
2023-03-04T19:16:44.264Z,4.57
2023-03-04T19:19:11.440Z,4.59
2023-03-04T19:21:40.257Z,4.66
2023-03-04T19:24:08.237Z,4.70
2023-03-04T19:26:35.583Z,4.57
2023-03-04T19:29:02.712Z,4.49
2023-03-04T19:31:29.954Z,4.52
2023-03-04T19:33:57.210Z,4.52
2023-03-04T19:36:25.753Z,4.45
2023-03-04T19:38:52.913Z,4.37
2023-03-04T19:41:20.106Z,4.34
2023-03-04T19:43:50.262Z,4.37
2023-03-04T19:46:17.514Z,4.41
2023-03-04T19:48:45.223Z,4.40
2023-03-04T19:51:26.118Z,4.50
2023-03-04T19:53:54.528Z,4.42
2023-03-04T19:56:22.957Z,4.35
2023-03-04T19:58:58.765Z,4.44
2023-03-04T20:01:28.579Z,4.52
2023-03-04T20:04:10.791Z,4.48
2023-03-04T20:06:42.345Z,4.48
2023-03-04T20:09:09.983Z,4.58
2023-03-04T20:11:44.254Z,4.55
2023-03-04T20:14:22.428Z,4.60
2023-03-04T20:16:49.493Z,4.57
2023-03-04T20:19:16.475Z,4.54
2023-03-04T20:21:43.681Z,4.76
2023-03-04T20:24:10.652Z,4.76
2023-03-04T20:26:39.484Z,4.99
2023-03-04T20:29:06.792Z,4.87
2023-03-04T20:31:38.980Z,4.86
2023-03-04T20:34:07.897Z,4.86
2023-03-04T20:36:36.002Z,4.92
2023-03-04T20:39:10.175Z,4.91
2023-03-04T20:41:42.384Z,4.81
2023-03-04T20:44:09.484Z,4.73
2023-03-04T20:46:45.312Z,4.64
2023-03-04T20:49:22.281Z,4.55
2023-03-04T20:51:51.299Z,4.61
2023-03-04T20:54:18.360Z,4.65
2023-03-04T20:56:45.867Z,4.59
2023-03-04T20:59:13.754Z,4.53
2023-03-04T21:01:43.521Z,4.48
2023-03-04T21:04:11.453Z,4.43
2023-03-04T21:06:39.618Z,4.40
2023-03-04T21:09:11.210Z,4.38
2023-03-04T21:11:41.367Z,4.32
2023-03-04T21:14:23.293Z,4.49
2023-03-04T21:16:56.755Z,4.36
2023-03-04T21:19:28.913Z,4.34
2023-03-04T21:21:58.351Z,4.32
2023-03-04T21:24:29.629Z,4.34
2023-03-04T21:26:57.339Z,4.41
2023-03-04T21:29:27.025Z,4.41
2023-03-04T21:32:16.829Z,4.36
2023-03-04T21:34:51.794Z,4.38
2023-03-04T21:37:23.972Z,4.39
2023-03-04T21:39:51.522Z,4.46
2023-03-04T21:42:19.501Z,4.45
2023-03-04T21:44:51.158Z,4.36
2023-03-04T21:47:21.972Z,4.36
2023-03-04T21:49:49.307Z,4.29
2023-03-04T21:52:18.194Z,4.26
2023-03-04T21:54:45.598Z,4.26
2023-03-04T21:57:14.223Z,4.31
2023-03-04T21:59:41.654Z,4.35
2023-03-04T22:02:20.917Z,4.29
2023-03-04T22:04:48.445Z,4.22
2023-03-04T22:07:15.675Z,4.24
2023-03-04T22:09:42.850Z,4.21
2023-03-04T22:12:09.967Z,4.21
2023-03-04T22:14:37.031Z,4.20
2023-03-04T22:17:04.232Z,4.17
2023-03-04T22:19:33.055Z,4.26
2023-03-04T22:22:00.379Z,4.25
2023-03-04T22:24:27.701Z,4.17
2023-03-04T22:26:57.591Z,4.17
2023-03-04T22:29:24.786Z,4.13
2023-03-04T22:31:51.837Z,4.14
2023-03-04T22:34:18.933Z,4.12
2023-03-04T22:36:47.316Z,4.01
2023-03-04T22:39:19.384Z,3.96
2023-03-04T22:41:46.876Z,3.93
2023-03-04T22:44:14.162Z,3.96
2023-03-04T22:46:42.315Z,3.96
2023-03-04T22:49:12.600Z,4.15
2023-03-04T22:51:42.776Z,4.14
2023-03-04T22:54:15.603Z,4.12
2023-03-04T22:56:43.211Z,4.18
2023-03-04T22:59:10.920Z,4.28
2023-03-04T23:01:38.074Z,4.32
2023-03-04T23:04:05.507Z,4.40
2023-03-04T23:06:32.663Z,4.41
2023-03-04T23:09:01.137Z,4.49
2023-03-04T23:11:31.759Z,4.37
2023-03-04T23:14:02.194Z,4.35
2023-03-04T23:16:29.370Z,4.35
2023-03-04T23:18:59.141Z,4.41
2023-03-04T23:21:28.405Z,4.38
2023-03-04T23:23:55.636Z,4.31
2023-03-04T23:26:30.535Z,4.33
2023-03-04T23:29:00.345Z,4.40
2023-03-04T23:31:32.299Z,4.47
2023-03-04T23:34:01.152Z,4.46
2023-03-04T23:36:34.992Z,4.49
2023-03-04T23:39:03.319Z,4.54
2023-03-04T23:41:33.015Z,4.58
2023-03-04T23:44:01.035Z,4.54
2023-03-04T23:46:29.341Z,4.60
2023-03-04T23:48:56.629Z,4.65
2023-03-04T23:51:27.778Z,4.71
2023-03-04T23:53:56.140Z,4.69
2023-03-04T23:56:30.443Z,4.76
2023-03-04T23:58:58.709Z,4.81
